createdAt,value
2019-04-14T00:02:29.390Z,10.90
2019-04-14T00:05:01.856Z,10.40
2019-04-14T00:07:31.901Z,11.73
2019-04-14T00:10:00.994Z,9.97
2019-04-14T00:12:29.972Z,10.43
2019-04-14T00:14:59.932Z,10.87
2019-04-14T00:17:30.613Z,10.73
2019-04-14T00:20:00.980Z,11.40
2019-04-14T00:22:30.995Z,11.33
2019-04-14T00:25:02.379Z,11.57
2019-04-14T00:27:32.394Z,11.77
2019-04-14T00:30:01.559Z,11.53
2019-04-14T00:32:33.313Z,12.40
2019-04-14T00:35:12.376Z,11.30
2019-04-14T00:38:01.204Z,12.10
2019-04-14T00:40:39.147Z,11.90
2019-04-14T00:43:15.896Z,12.43
2019-04-14T00:45:53.073Z,12.20
2019-04-14T00:48:24.177Z,11.63
2019-04-14T00:50:54.011Z,12.70
2019-04-14T00:53:23.273Z,12.10
2019-04-14T00:55:53.341Z,12.20
2019-04-14T00:58:23.527Z,12.90
2019-04-14T01:00:53.840Z,12.33
2019-04-14T01:03:24.441Z,12.80
2019-04-14T01:05:54.655Z,12.10
2019-04-14T01:08:24.835Z,13.03
2019-04-14T01:10:54.203Z,12.33
2019-04-14T01:13:24.615Z,13.07
2019-04-14T01:16:00.597Z,13.03
2019-04-14T01:18:25.525Z,13.50
2019-04-14T01:20:55.661Z,13.20
2019-04-14T01:23:26.095Z,13.87
2019-04-14T01:25:56.444Z,13.10
2019-04-14T01:28:26.574Z,12.50
2019-04-14T01:30:56.600Z,12.90
2019-04-14T01:33:25.702Z,12.77
2019-04-14T01:35:55.282Z,13.33
2019-04-14T01:38:25.490Z,12.90
2019-04-14T01:40:55.294Z,12.67
2019-04-14T01:43:25.567Z,12.93
2019-04-14T01:46:05.141Z,12.70
2019-04-14T01:48:25.824Z,12.80
2019-04-14T01:51:07.058Z,12.30
2019-04-14T01:53:46.774Z,12.97
2019-04-14T01:56:22.978Z,12.73
2019-04-14T01:58:55.696Z,12.60
2019-04-14T02:01:30.401Z,13.07
2019-04-14T02:04:00.663Z,13.30
2019-04-14T02:06:29.720Z,13.37
2019-04-14T02:08:58.996Z,14.17
2019-04-14T02:11:29.173Z,14.10
2019-04-14T02:13:59.362Z,13.40
2019-04-14T02:16:39.184Z,14.00
2019-04-14T02:19:00.349Z,13.67
2019-04-14T02:21:30.309Z,13.60
2019-04-14T02:24:00.478Z,14.00
2019-04-14T02:26:30.831Z,13.70
2019-04-14T02:29:01.329Z,13.47
2019-04-14T02:31:54.994Z,14.50
2019-04-14T02:39:39.084Z,14.53
2019-04-14T02:42:17.370Z,13.80
2019-04-14T02:44:38.262Z,13.90
2019-04-14T02:49:36.806Z,14.50
2019-04-14T02:52:04.439Z,14.20
2019-04-14T02:54:45.896Z,14.00
2019-04-14T02:57:12.563Z,13.47
2019-04-14T03:04:45.364Z,14.83
2019-04-14T03:07:19.096Z,13.37
2019-04-14T03:09:42.248Z,14.30
2019-04-14T03:12:16.389Z,13.90
2019-04-14T03:14:49.853Z,13.67
2019-04-14T03:17:39.140Z,13.53
2019-04-14T03:20:48.247Z,14.73
2019-04-14T03:25:49.258Z,14.93
2019-04-14T03:28:37.916Z,14.27
2019-04-14T03:38:50.865Z,15.83
2019-04-14T03:41:27.387Z,14.63
2019-04-14T03:43:54.645Z,14.80
2019-04-14T03:46:27.437Z,14.87
2019-04-14T03:51:26.291Z,15.93
2019-04-14T03:53:46.069Z,16.53
2019-04-14T03:56:29.837Z,15.27
2019-04-14T03:58:59.822Z,15.53
2019-04-14T04:01:30.128Z,15.73
2019-04-14T04:03:59.271Z,15.63
2019-04-14T04:06:29.217Z,16.93
2019-04-14T04:08:59.568Z,16.17
2019-04-14T04:11:30.055Z,17.33
2019-04-14T04:14:00.609Z,16.37
2019-04-14T04:16:41.953Z,16.30
2019-04-14T04:19:19.375Z,17.17
2019-04-14T04:22:10.822Z,16.13
2019-04-14T04:24:52.156Z,15.60
2019-04-14T04:27:27.191Z,17.07
2019-04-14T04:30:12.406Z,17.07
2019-04-14T04:32:55.946Z,16.83
2019-04-14T04:35:32.535Z,17.63
2019-04-14T04:38:24.741Z,16.67
2019-04-14T04:40:55.079Z,16.97
2019-04-14T04:43:25.404Z,16.80
2019-04-14T04:45:55.961Z,18.07
2019-04-14T04:48:26.416Z,17.90
2019-04-14T04:50:56.384Z,18.23
2019-04-14T04:53:26.672Z,17.47
2019-04-14T04:55:56.791Z,18.50
2019-04-14T04:58:26.237Z,18.63
2019-04-14T05:00:57.378Z,19.00
2019-04-14T05:03:27.570Z,19.00
2019-04-14T05:06:32.924Z,19.27
2019-04-14T05:09:16.559Z,18.63
2019-04-14T05:12:04.606Z,19.53
2019-04-14T05:14:41.908Z,18.83
2019-04-14T05:17:12.525Z,19.47
2019-04-14T05:19:42.089Z,18.97
2019-04-14T05:22:15.976Z,19.83
2019-04-14T05:24:44.043Z,18.97
2019-04-14T05:27:14.531Z,18.17
2019-04-14T05:29:45.138Z,19.20
2019-04-14T05:32:15.202Z,19.70
2019-04-14T05:34:45.411Z,17.87
2019-04-14T05:37:14.491Z,18.70
2019-04-14T05:39:44.099Z,19.27
2019-04-14T05:42:19.389Z,19.53
2019-04-14T05:44:44.804Z,20.37
2019-04-14T05:47:13.958Z,19.23
2019-04-14T05:49:46.840Z,19.40
2019-04-14T05:52:16.371Z,21.37
2019-04-14T05:54:45.461Z,23.93
2019-04-14T05:57:15.520Z,20.50
2019-04-14T05:59:46.110Z,20.43
2019-04-14T06:02:15.955Z,20.70
2019-04-14T06:04:46.097Z,21.20
2019-04-14T06:07:15.733Z,22.40
2019-04-14T06:09:45.133Z,30.70
2019-04-14T06:12:14.128Z,34.53
2019-04-14T06:14:43.199Z,35.37
2019-04-14T06:17:12.280Z,24.67
2019-04-14T06:19:41.443Z,22.80
2019-04-14T06:22:10.579Z,21.03
2019-04-14T06:24:40.719Z,22.67
2019-04-14T06:27:09.727Z,20.43
2019-04-14T06:29:38.797Z,22.20
2019-04-14T06:32:17.243Z,20.80
2019-04-14T06:35:05.305Z,22.90
2019-04-14T06:37:38.253Z,23.13
2019-04-14T06:40:07.734Z,22.53
2019-04-14T06:42:37.295Z,21.67
2019-04-14T06:45:07.267Z,22.47
2019-04-14T06:47:36.995Z,22.10
2019-04-14T06:50:06.969Z,24.20
2019-04-14T06:52:36.210Z,23.57
2019-04-14T06:55:05.974Z,22.87
2019-04-14T06:57:35.392Z,23.80
2019-04-14T07:00:04.886Z,22.07
2019-04-14T07:02:33.949Z,25.00
2019-04-14T07:05:03.001Z,23.17
2019-04-14T07:07:32.120Z,24.43
2019-04-14T07:10:01.362Z,23.07
2019-04-14T07:12:30.405Z,24.33
2019-04-14T07:14:59.713Z,24.93
2019-04-14T07:17:28.848Z,22.50
2019-04-14T07:20:02.097Z,26.50
2019-04-14T07:22:28.758Z,28.80
2019-04-14T07:24:58.154Z,27.97
2019-04-14T07:27:27.549Z,27.40
2019-04-14T07:30:03.153Z,28.63
2019-04-14T07:32:57.277Z,29.70
2019-04-14T07:35:41.223Z,28.40
2019-04-14T07:38:15.531Z,27.83
2019-04-14T07:41:02.719Z,29.07
2019-04-14T07:43:40.554Z,28.73
2019-04-14T07:46:21.965Z,28.93
2019-04-14T07:48:57.021Z,30.87
2019-04-14T07:51:49.327Z,31.63
2019-04-14T07:54:33.595Z,28.10
2019-04-14T07:57:12.743Z,35.83
2019-04-14T08:00:12.818Z,26.43
2019-04-14T08:02:58.870Z,26.37
2019-04-14T08:05:35.080Z,29.53
2019-04-14T08:08:04.557Z,27.27
2019-04-14T08:10:34.606Z,30.27
2019-04-14T08:13:03.661Z,29.50
2019-04-14T08:15:32.850Z,29.60
2019-04-14T08:18:02.132Z,31.33
2019-04-14T08:20:31.513Z,31.33
2019-04-14T08:23:00.919Z,31.43
2019-04-14T08:25:30.263Z,31.70
2019-04-14T08:27:59.948Z,32.93
2019-04-14T08:30:29.019Z,31.03
2019-04-14T08:32:58.731Z,33.97
2019-04-14T08:35:27.815Z,32.57
2019-04-14T08:37:56.991Z,27.73
2019-04-14T08:40:27.728Z,31.83
2019-04-14T08:43:05.595Z,32.97
2019-04-14T08:45:48.578Z,31.90
2019-04-14T08:48:35.321Z,33.60
2019-04-14T08:51:08.391Z,32.97
2019-04-14T08:53:56.827Z,31.30
2019-04-14T08:56:45.308Z,31.33
2019-04-14T08:59:33.793Z,31.00
2019-04-14T09:02:22.258Z,30.27
2019-04-14T09:05:12.190Z,30.70
2019-04-14T09:07:47.627Z,27.07
2019-04-14T09:10:23.512Z,34.53
2019-04-14T09:12:54.091Z,35.83
2019-04-14T09:15:23.304Z,39.63
2019-04-14T09:17:52.399Z,38.37
2019-04-14T09:20:21.458Z,39.17
2019-04-14T09:22:50.491Z,39.37
2019-04-14T09:25:19.679Z,39.03
2019-04-14T09:27:49.094Z,33.63
2019-04-14T09:30:18.645Z,33.80
2019-04-14T09:32:47.935Z,32.40
2019-04-14T09:35:17.114Z,35.87
2019-04-14T09:37:46.175Z,34.33
2019-04-14T09:40:15.731Z,31.13
2019-04-14T09:42:44.919Z,32.33
2019-04-14T09:45:14.460Z,33.33
2019-04-14T09:47:43.485Z,33.20
2019-04-14T09:50:13.270Z,32.90
2019-04-14T09:52:42.321Z,31.87
2019-04-14T09:55:11.881Z,32.90
2019-04-14T09:57:41.273Z,33.13
2019-04-14T10:00:14.366Z,31.97
2019-04-14T10:02:43.438Z,31.60
2019-04-14T10:05:12.586Z,31.37
2019-04-14T10:07:45.390Z,31.60
2019-04-14T10:10:14.778Z,29.70
2019-04-14T10:12:44.417Z,31.37
2019-04-14T10:15:13.570Z,30.63
2019-04-14T10:17:42.614Z,29.83
2019-04-14T10:20:11.994Z,29.93
2019-04-14T10:22:41.044Z,30.23
2019-04-14T10:25:10.134Z,29.47
2019-04-14T10:27:39.202Z,31.80
2019-04-14T10:30:08.867Z,32.03
2019-04-14T10:32:38.719Z,31.57
2019-04-14T10:35:07.787Z,29.97
2019-04-14T10:37:37.140Z,30.23
2019-04-14T10:40:06.451Z,31.50
2019-04-14T10:42:35.950Z,30.73
2019-04-14T10:45:05.285Z,31.53
2019-04-14T10:47:34.760Z,36.67
2019-04-14T10:50:04.284Z,32.33
2019-04-14T10:52:33.708Z,31.47
2019-04-14T10:55:02.867Z,32.60
2019-04-14T10:57:32.055Z,32.97
2019-04-14T11:00:01.127Z,30.60
2019-04-14T11:02:30.199Z,34.30
2019-04-14T11:04:59.274Z,33.20
2019-04-14T11:07:30.010Z,32.17
2019-04-14T11:09:59.140Z,32.73
2019-04-14T11:12:28.952Z,32.23
2019-04-14T11:14:58.666Z,32.83
2019-04-14T11:17:28.042Z,30.17
2019-04-14T11:19:57.777Z,31.33
2019-04-14T11:22:26.938Z,31.90
2019-04-14T11:24:56.163Z,32.97
2019-04-14T11:27:25.721Z,32.73
2019-04-14T11:29:55.552Z,30.03
2019-04-14T11:32:50.848Z,32.30
2019-04-14T11:35:24.318Z,32.63
2019-04-14T11:38:11.131Z,34.37
2019-04-14T11:40:46.571Z,35.20
2019-04-14T11:43:16.067Z,32.20
2019-04-14T11:45:47.120Z,31.63
2019-04-14T11:48:16.192Z,30.73
2019-04-14T11:50:45.259Z,32.37
2019-04-14T11:53:14.365Z,31.67
2019-04-14T11:55:43.412Z,31.23
2019-04-14T11:58:12.604Z,32.30
2019-04-14T12:00:59.143Z,32.27
2019-04-14T12:03:54.207Z,31.97
2019-04-14T12:06:42.862Z,30.87
2019-04-14T12:09:18.506Z,29.17
2019-04-14T12:11:47.558Z,30.27
2019-04-14T12:14:17.018Z,29.23
2019-04-14T12:16:46.202Z,30.17
2019-04-14T12:19:15.597Z,30.23
2019-04-14T12:21:44.685Z,33.77
2019-04-14T12:24:13.796Z,31.40
2019-04-14T12:26:42.860Z,31.00
2019-04-14T12:29:12.030Z,31.47
2019-04-14T12:31:42.000Z,30.77
2019-04-14T12:34:11.178Z,32.87
2019-04-14T12:36:40.658Z,31.67
2019-04-14T12:39:17.858Z,31.90
2019-04-14T12:41:51.167Z,32.03
2019-04-14T12:44:38.786Z,32.40
2019-04-14T12:47:27.187Z,32.17
2019-04-14T12:49:57.162Z,32.40
2019-04-14T12:52:27.660Z,31.63
2019-04-14T12:54:57.379Z,31.80
2019-04-14T12:57:39.979Z,32.27
2019-04-14T13:00:17.677Z,33.60
2019-04-14T13:02:48.856Z,33.73
2019-04-14T13:05:17.902Z,31.73
2019-04-14T13:07:47.225Z,32.47
2019-04-14T13:10:16.745Z,31.20
2019-04-14T13:12:46.095Z,32.50
2019-04-14T13:15:15.447Z,36.40
2019-04-14T13:17:44.591Z,37.13
2019-04-14T13:20:13.958Z,35.37
2019-04-14T13:22:43.032Z,34.27
2019-04-14T13:25:12.218Z,34.83
2019-04-14T13:27:41.309Z,34.27
2019-04-14T13:30:12.884Z,32.17
2019-04-14T13:32:42.374Z,32.80
2019-04-14T13:35:12.046Z,30.33
2019-04-14T13:37:41.154Z,30.97
2019-04-14T13:40:10.374Z,32.83
2019-04-14T13:42:40.004Z,31.73
2019-04-14T13:45:09.448Z,32.53
2019-04-14T13:47:39.051Z,30.87
2019-04-14T13:50:08.492Z,33.70
2019-04-14T13:52:46.610Z,32.87
2019-04-14T13:55:08.916Z,32.37
2019-04-14T13:57:38.086Z,33.50
2019-04-14T14:00:09.191Z,34.27
2019-04-14T14:02:40.538Z,34.50
2019-04-14T14:05:10.050Z,34.17
2019-04-14T14:07:39.490Z,34.90
2019-04-14T14:10:10.255Z,34.20
2019-04-14T14:12:58.717Z,33.53
2019-04-14T14:15:51.734Z,32.50
2019-04-14T14:18:33.028Z,31.80
2019-04-14T14:21:27.125Z,32.33
2019-04-14T14:24:27.984Z,32.60
2019-04-14T14:27:02.190Z,32.10
2019-04-14T14:29:31.340Z,33.13
2019-04-14T14:32:02.281Z,33.70
2019-04-14T14:34:33.599Z,34.03
2019-04-14T14:37:03.802Z,34.03
2019-04-14T14:39:32.959Z,34.00
2019-04-14T14:42:02.020Z,35.03
2019-04-14T14:44:39.134Z,33.43
2019-04-14T14:47:20.941Z,33.63
2019-04-14T14:50:09.021Z,32.17
2019-04-14T14:52:39.795Z,32.90
2019-04-14T14:55:08.949Z,33.83
2019-04-14T14:57:38.017Z,33.70
2019-04-14T15:00:13.220Z,33.03
2019-04-14T15:02:42.829Z,33.20
2019-04-14T15:05:13.029Z,34.00
2019-04-14T15:07:42.195Z,33.63
2019-04-14T15:10:11.411Z,31.70
2019-04-14T15:12:40.468Z,31.23
2019-04-14T15:15:15.082Z,32.77
2019-04-14T15:17:44.188Z,32.13
2019-04-14T15:20:13.817Z,33.30
2019-04-14T15:22:42.894Z,34.23
2019-04-14T15:25:11.984Z,32.23
2019-04-14T15:27:40.998Z,31.17
2019-04-14T15:30:21.443Z,34.63
2019-04-14T15:32:54.670Z,32.87
2019-04-14T15:35:33.106Z,32.87
2019-04-14T15:38:04.438Z,34.00
2019-04-14T15:40:33.456Z,32.43
2019-04-14T15:43:02.778Z,32.10
2019-04-14T15:45:31.821Z,33.97
2019-04-14T15:48:01.095Z,33.23
2019-04-14T15:50:30.169Z,34.73
2019-04-14T15:52:59.272Z,32.73
2019-04-14T15:55:29.749Z,31.57
2019-04-14T15:58:14.288Z,31.70
2019-04-14T16:01:09.992Z,31.83
2019-04-14T16:03:56.177Z,33.17
2019-04-14T16:06:54.103Z,29.40
2019-04-14T16:09:29.813Z,32.47
2019-04-14T16:12:08.347Z,32.47
2019-04-14T16:14:59.160Z,33.40
2019-04-14T16:17:50.719Z,32.73
2019-04-14T16:20:28.947Z,31.60
2019-04-14T16:22:58.629Z,32.97
2019-04-14T16:25:50.836Z,33.10
2019-04-14T16:28:38.924Z,31.40
2019-04-14T16:31:27.079Z,33.97
2019-04-14T16:36:26.398Z,31.70
2019-04-14T16:38:55.505Z,31.30
2019-04-14T16:41:25.018Z,29.17
2019-04-14T16:43:54.055Z,34.60
2019-04-14T16:46:23.259Z,32.50
2019-04-14T16:48:52.488Z,29.80
2019-04-14T16:51:29.141Z,31.83
2019-04-14T16:54:03.154Z,29.90
2019-04-14T16:56:53.097Z,31.03
2019-04-14T16:59:23.951Z,29.90
2019-04-14T17:01:53.012Z,30.43
2019-04-14T17:04:22.610Z,33.07
2019-04-14T17:06:54.722Z,33.73
2019-04-14T17:09:23.944Z,33.57
2019-04-14T17:11:53.170Z,33.40
2019-04-14T17:14:44.784Z,36.30
2019-04-14T17:17:31.497Z,35.20
2019-04-14T17:20:27.180Z,34.53
2019-04-14T17:23:27.151Z,33.07
2019-04-14T17:26:08.758Z,33.03
2019-04-14T17:28:54.111Z,32.57
2019-04-14T17:31:34.164Z,31.77
2019-04-14T17:34:09.223Z,32.50
2019-04-14T17:37:03.128Z,31.50
2019-04-14T17:39:43.845Z,35.70
2019-04-14T17:42:20.996Z,31.67
2019-04-14T17:45:13.266Z,30.53
2019-04-14T17:48:04.306Z,31.73
2019-04-14T17:50:40.810Z,33.50
2019-04-14T17:53:22.739Z,31.00
2019-04-14T17:56:19.899Z,32.30
2019-04-14T17:58:59.912Z,33.00
2019-04-14T18:01:36.316Z,32.57
2019-04-14T18:04:10.466Z,30.47
2019-04-14T18:06:46.951Z,29.07
2019-04-14T18:09:25.127Z,38.00
2019-04-14T18:12:06.894Z,36.77
2019-04-14T18:14:47.368Z,34.03
2019-04-14T18:17:30.374Z,30.90
2019-04-14T18:20:03.575Z,34.20
2019-04-14T18:22:32.598Z,31.17
2019-04-14T18:25:01.758Z,33.60
2019-04-14T18:27:34.046Z,33.07
2019-04-14T18:30:17.877Z,33.33
2019-04-14T18:33:08.989Z,34.23
2019-04-14T18:35:55.396Z,34.23
2019-04-14T18:38:49.584Z,35.20
2019-04-14T18:41:40.614Z,37.37
2019-04-14T18:44:31.437Z,36.93
2019-04-14T18:47:07.473Z,35.20
2019-04-14T18:49:49.461Z,35.90
2019-04-14T18:52:43.739Z,36.90
2019-04-14T18:55:29.643Z,36.63
2019-04-14T18:58:35.585Z,36.67
2019-04-14T19:01:17.071Z,32.77
2019-04-14T19:03:46.482Z,36.10
2019-04-14T19:06:15.773Z,36.93
2019-04-14T19:08:45.399Z,37.33
2019-04-14T19:11:34.059Z,34.50
2019-04-14T19:14:04.930Z,36.00
2019-04-14T19:16:40.634Z,35.83
2019-04-14T19:19:10.064Z,34.43
2019-04-14T19:21:39.313Z,34.03
2019-04-14T19:24:08.429Z,34.77
2019-04-14T19:26:37.625Z,34.63
2019-04-14T19:29:07.098Z,33.87
2019-04-14T19:31:36.092Z,33.83
2019-04-14T19:34:05.257Z,34.23
2019-04-14T19:36:36.806Z,34.60
2019-04-14T19:39:10.887Z,35.80
2019-04-14T19:41:42.063Z,34.60
2019-04-14T19:44:11.671Z,37.30
2019-04-14T19:46:41.454Z,34.77
2019-04-14T19:49:12.694Z,34.63
2019-04-14T19:51:42.082Z,35.87
2019-04-14T19:54:11.185Z,35.73
2019-04-14T19:56:40.215Z,37.13
2019-04-14T19:59:09.533Z,38.37
2019-04-14T20:01:39.058Z,37.87
2019-04-14T20:04:08.912Z,36.27
2019-04-14T20:06:38.252Z,37.60
2019-04-14T20:09:07.775Z,38.00
2019-04-14T20:11:37.516Z,37.80
2019-04-14T20:14:06.524Z,39.50
2019-04-14T20:16:51.411Z,38.80
2019-04-14T20:19:39.465Z,38.47
2019-04-14T20:22:33.872Z,37.30
2019-04-14T20:25:09.065Z,65.77
2019-04-14T20:27:52.205Z,38.97
2019-04-14T20:30:32.011Z,40.03
2019-04-14T20:33:01.040Z,39.17
2019-04-14T20:35:30.451Z,38.20
2019-04-14T20:37:59.682Z,36.43
2019-04-14T20:40:30.239Z,39.90
2019-04-14T20:42:59.585Z,40.60
2019-04-14T20:45:28.636Z,38.43
2019-04-14T20:47:57.767Z,37.60
2019-04-14T20:50:26.811Z,37.13
2019-04-14T20:52:55.852Z,37.03
2019-04-14T20:55:24.978Z,39.40
2019-04-14T20:57:54.278Z,40.13
2019-04-14T21:00:23.804Z,37.30
2019-04-14T21:03:09.170Z,37.83
2019-04-14T21:05:55.993Z,37.83
2019-04-14T21:08:42.716Z,39.07
2019-04-14T21:11:36.534Z,37.80
2019-04-14T21:14:24.603Z,35.10
2019-04-14T21:17:08.565Z,35.20
2019-04-14T21:19:56.802Z,41.43
2019-04-14T21:22:43.195Z,37.50
2019-04-14T21:25:43.494Z,36.13
2019-04-14T21:28:29.992Z,36.40
2019-04-14T21:31:13.566Z,37.77
2019-04-14T21:33:51.207Z,39.83
2019-04-14T21:36:28.592Z,37.33
2019-04-14T21:39:15.847Z,39.03
2019-04-14T21:41:46.683Z,37.90
2019-04-14T21:44:16.533Z,36.67
2019-04-14T21:46:46.278Z,35.87
2019-04-14T21:49:15.766Z,35.30
2019-04-14T21:52:12.951Z,35.77
2019-04-14T21:54:43.943Z,38.47
2019-04-14T21:57:38.442Z,38.97
2019-04-14T22:00:43.740Z,39.33
2019-04-14T22:03:39.575Z,38.83
2019-04-14T22:06:15.076Z,41.10
2019-04-14T22:08:47.882Z,39.17
2019-04-14T22:11:19.899Z,40.77
2019-04-14T22:13:51.084Z,40.73
2019-04-14T22:16:20.049Z,39.17
2019-04-14T22:18:49.797Z,40.30
2019-04-14T22:21:18.918Z,41.63
2019-04-14T22:24:00.310Z,39.67
2019-04-14T22:26:26.080Z,39.83
2019-04-14T22:28:49.499Z,40.93
2019-04-14T22:31:18.555Z,41.20
2019-04-14T22:33:47.571Z,41.93
2019-04-14T22:36:16.621Z,42.27
2019-04-14T22:38:46.115Z,41.60
2019-04-14T22:41:15.155Z,39.87
2019-04-14T22:43:44.548Z,40.93
2019-04-14T22:46:13.573Z,40.00
2019-04-14T22:48:42.654Z,41.23
2019-04-14T22:51:11.836Z,42.27
2019-04-14T22:53:40.884Z,41.00
2019-04-14T22:56:10.299Z,41.93
2019-04-14T22:58:39.384Z,41.97
2019-04-14T23:01:18.270Z,42.63
2019-04-14T23:04:04.763Z,41.63
2019-04-14T23:06:58.123Z,40.80
2019-04-14T23:09:40.745Z,40.27
2019-04-14T23:12:21.412Z,40.97
2019-04-14T23:14:55.487Z,42.17
2019-04-14T23:17:32.281Z,41.97
2019-04-14T23:20:22.997Z,44.27
2019-04-14T23:23:18.956Z,41.77
2019-04-14T23:25:48.429Z,41.37
2019-04-14T23:28:17.459Z,42.13
2019-04-14T23:30:47.477Z,40.67
2019-04-14T23:33:16.493Z,40.90
2019-04-14T23:35:45.979Z,39.57
2019-04-14T23:38:15.138Z,38.17
2019-04-14T23:40:44.355Z,36.00
2019-04-14T23:43:13.738Z,36.23
2019-04-14T23:45:42.752Z,35.97
2019-04-14T23:48:11.753Z,35.13
2019-04-14T23:50:40.761Z,34.53
2019-04-14T23:53:09.762Z,35.10
2019-04-14T23:55:38.815Z,35.60
2019-04-14T23:58:08.123Z,35.10
